Time;durP1;ratioP1;P1;durP2;ratioP2;P2;SDS_P1;SDS_P2;PMS_P1;PMS_P2;Temp;Humidity;BMP_temperature;BMP_pressure;BME280_temperature;BME280_humidity;BME280_pressure;Samples;Min_cycle;Max_cycle;Signal;HPM_P1;HPM_P2
2021/09/14 00:00:01;;;;;;;14.75;9.10;;;;;;;14.79;76.77;100508.36;1679279;82;26015;-67
2021/09/14 00:02:27;;;;;;;10.55;8.80;;;;;;;14.80;76.77;100504.52;1691095;83;25840;-68
2021/09/14 00:04:53;;;;;;;13.15;9.35;;;;;;;14.82;77.81;100501.47;1674735;83;25685;-68
2021/09/14 00:07:20;;;;;;;14.40;9.83;;;;;;;14.88;77.98;100506.92;1689856;83;27318;-68
2021/09/14 00:09:47;;;;;;;17.02;8.90;;;;;;;14.89;77.52;100506.59;1683805;82;26225;-68
2021/09/14 00:12:13;;;;;;;19.10;9.03;;;;;;;14.89;77.38;100503.09;1685008;82;25829;-68
2021/09/14 00:14:40;;;;;;;14.03;8.68;;;;;;;14.89;77.29;100503.88;1688277;83;26030;-68
2021/09/14 00:17:06;;;;;;;15.65;9.50;;;;;;;14.90;77.26;100506.84;1692212;83;25705;-68
2021/09/14 00:19:33;;;;;;;12.60;9.00;;;;;;;14.91;77.25;100507.63;1681335;83;27412;-68
2021/09/14 00:22:00;;;;;;;10.60;9.23;;;;;;;14.92;77.26;100496.98;1687635;83;25806;-69
2021/09/14 00:24:27;;;;;;;11.38;9.03;;;;;;;14.92;77.24;100510.02;1688743;83;25822;-69
2021/09/14 00:26:53;;;;;;;13.20;8.93;;;;;;;14.93;77.14;100509.45;1685763;83;25961;-69
2021/09/14 00:29:20;;;;;;;13.68;8.80;;;;;;;14.93;77.19;100505.36;1675476;83;25677;-68
2021/09/14 00:31:47;;;;;;;11.33;8.88;;;;;;;14.92;77.17;100507.30;1692907;83;27365;-68
2021/09/14 00:34:13;;;;;;;11.70;8.90;;;;;;;14.94;77.20;100509.69;1688360;82;26156;-68
2021/09/14 00:36:40;;;;;;;15.23;8.75;;;;;;;14.93;77.16;100507.55;1699814;83;26000;-69
2021/09/14 00:39:06;;;;;;;9.63;8.00;;;;;;;14.93;76.97;100511.63;1688668;82;25780;-69
2021/09/14 00:41:33;;;;;;;11.05;8.40;;;;;;;14.93;76.98;100514.89;1676780;83;25752;-69
2021/09/14 00:44:03;;;;;;;11.50;8.00;;;;;;;14.91;76.99;100513.89;1694985;82;27349;-69
2021/09/14 00:46:30;;;;;;;13.15;8.35;;;;;;;14.91;77.55;100517.16;1704380;83;25883;-69
2021/09/14 00:48:58;;;;;;;15.65;8.63;;;;;;;14.93;78.05;100517.08;1689512;83;25506;-69
2021/09/14 00:51:25;;;;;;;12.93;8.90;;;;;;;14.96;78.12;100516.17;1689168;83;25688;-69
2021/09/14 00:53:52;;;;;;;12.23;7.95;;;;;;;14.94;77.57;100519.23;1674112;83;26263;-69
2021/09/14 00:56:19;;;;;;;11.03;8.88;;;;;;;14.91;77.29;100518.52;1697780;82;27383;-69
2021/09/14 00:58:46;;;;;;;15.80;8.33;;;;;;;14.87;77.23;100518.39;1711165;82;25739;-69
2021/09/14 01:01:13;;;;;;;12.82;8.85;;;;;;;14.85;77.16;100517.14;1715901;82;25614;-69
2021/09/14 01:03:40;;;;;;;14.68;8.70;;;;;;;14.81;77.13;100518.92;1689655;82;26252;-69
2021/09/14 01:06:07;;;;;;;15.40;8.48;;;;;;;14.75;77.01;100525.92;1688609;83;25829;-69
2021/09/14 01:08:36;;;;;;;17.42;9.55;;;;;;;14.73;77.23;100515.15;1709653;83;27391;-69
2021/09/14 01:11:04;;;;;;;11.30;8.78;;;;;;;14.78;78.93;100510.05;1700206;81;25436;-69
2021/09/14 01:13:30;;;;;;;12.60;8.78;;;;;;;14.77;78.18;100511.20;1692368;81;25619;-69
2021/09/14 01:16:07;;;;;;;11.08;8.90;;;;;;;14.74;77.81;100509.92;1683776;82;25897;-69
2021/09/14 01:18:34;;;;;;;11.33;8.80;;;;;;;14.69;77.43;100512.30;1677970;83;25811;-69
2021/09/14 01:21:00;;;;;;;14.15;9.75;;;;;;;14.64;77.21;100514.39;1686013;83;27299;-69
2021/09/14 01:23:27;;;;;;;10.43;8.35;;;;;;;14.57;77.26;100514.34;1690227;83;25886;-69
2021/09/14 01:25:54;;;;;;;10.70;8.55;;;;;;;14.55;77.35;100518.51;1672289;83;25795;-69
2021/09/14 01:28:20;;;;;;;12.70;9.08;;;;;;;14.50;77.44;100515.41;1701522;83;26338;-69
2021/09/14 01:30:47;;;;;;;10.93;8.28;;;;;;;14.48;77.25;100518.24;1696709;83;25656;-69
2021/09/14 01:33:15;;;;;;;12.05;8.10;;;;;;;14.46;77.31;100516.42;1674954;82;27393;-69
2021/09/14 01:35:43;;;;;;;11.75;7.92;;;;;;;14.43;77.22;100511.63;1682388;82;25883;-69
2021/09/14 01:38:10;;;;;;;11.45;8.95;;;;;;;14.39;77.31;100517.72;1701406;83;25746;-69
2021/09/14 01:40:37;;;;;;;10.03;8.75;;;;;;;14.37;77.53;100519.20;1700467;83;26199;-69
2021/09/14 01:45:33;;;;;;;14.20;10.43;;;;;;;14.30;77.86;100516.98;1688478;83;27969;-69
2021/09/14 01:47:59;;;;;;;14.75;9.03;;;;;;;14.29;77.89;100521.39;1691320;83;25707;-69
2021/09/14 01:50:26;;;;;;;12.95;9.48;;;;;;;14.29;78.06;100530.34;1675812;82;26139;-69
2021/09/14 01:52:53;;;;;;;11.63;9.08;;;;;;;14.30;78.08;100527.05;1687150;82;27805;-69
2021/09/14 01:55:19;;;;;;;14.45;9.90;;;;;;;14.29;78.19;100531.70;1685052;83;26627;-69
2021/09/14 01:57:46;;;;;;;12.90;9.55;;;;;;;14.28;78.37;100526.02;1681127;84;29543;-69
2021/09/14 02:00:17;;;;;;;14.83;10.53;;;;;;;14.29;78.32;100524.91;1680200;84;25679;-69
2021/09/14 02:03:02;;;;;;;16.23;10.58;;;;;;;14.30;78.48;100524.33;1669485;84;25481;-68
2021/09/14 02:05:30;;;;;;;13.65;10.48;;;;;;;14.30;78.65;100529.23;1682021;84;26516;-69
2021/09/14 02:24:36;;;;;;;14.85;10.13;;;;;;;14.40;79.12;100529.40;1674953;84;27388;-68
2021/09/14 02:30:13;;;;;;;12.00;9.58;;;;;;;14.42;79.25;100521.73;1678538;84;25800;-69
2021/09/14 02:43:15;;;;;;;14.28;9.33;;;;;;;14.48;79.48;100512.23;1644175;86;25872;-69
2021/09/14 02:59:04;;;;;;;11.08;9.23;;;;;;;14.53;79.62;100522.13;1645440;85;25967;-70
2021/09/14 03:01:30;;;;;;;12.37;9.70;;;;;;;14.54;79.68;100525.06;1675918;83;25818;-70
2021/09/14 03:03:58;;;;;;;14.58;10.95;;;;;;;14.55;79.71;100520.66;1679800;84;27248;-69
2021/09/14 03:06:25;;;;;;;19.00;10.32;;;;;;;14.57;79.73;100523.88;1684130;84;25850;-69
2021/09/14 03:08:52;;;;;;;16.60;10.35;;;;;;;14.57;79.63;100523.88;1692490;84;25786;-69
2021/09/14 03:11:23;;;;;;;13.98;9.58;;;;;;;14.59;79.58;100531.71;1688916;83;25881;-69
2021/09/14 03:13:49;;;;;;;13.13;9.45;;;;;;;14.60;79.55;100530.59;1691208;83;25844;-69
2021/09/14 03:16:16;;;;;;;13.88;8.80;;;;;;;14.60;79.50;100523.79;1689932;84;27228;-70
2021/09/14 03:18:43;;;;;;;13.70;9.88;;;;;;;14.61;79.52;100532.20;1645963;85;25808;-70
2021/09/14 03:21:12;;;;;;;11.70;8.98;;;;;;;14.61;79.66;100535.47;1682268;84;25814;-70
2021/09/14 03:23:39;;;;;;;13.40;8.90;;;;;;;14.62;79.67;100529.70;1664932;84;25630;-68
2021/09/14 03:26:05;;;;;;;12.65;8.98;;;;;;;14.64;79.80;100532.09;1657043;83;25777;-71
2021/09/14 03:28:33;;;;;;;10.38;8.75;;;;;;;14.65;79.80;100533.13;1706252;83;28165;-70
2021/09/14 03:31:00;;;;;;;12.98;10.00;;;;;;;14.66;79.90;100529.28;1713484;83;25825;-69
2021/09/14 03:33:27;;;;;;;11.18;10.00;;;;;;;14.67;79.84;100528.71;1664981;84;25832;-70
2021/09/14 03:35:53;;;;;;;16.12;9.83;;;;;;;14.69;79.80;100533.26;1702113;82;25681;-69
2021/09/14 03:38:20;;;;;;;11.03;8.75;;;;;;;14.68;79.83;100529.75;1660269;84;25771;-69
2021/09/14 03:40:47;;;;;;;11.38;8.65;;;;;;;14.68;79.89;100531.68;1688308;83;28222;-69
2021/09/14 03:43:14;;;;;;;14.30;10.43;;;;;;;14.69;79.81;100532.72;1678213;84;25863;-70
2021/09/14 03:45:46;;;;;;;13.18;9.53;;;;;;;14.68;79.74;100539.27;1689738;84;25631;-69
2021/09/14 03:48:14;;;;;;;13.65;8.90;;;;;;;14.69;79.71;100547.69;1682971;84;25854;-69
2021/09/14 03:50:41;;;;;;;14.23;9.15;;;;;;;14.69;79.64;100540.06;1683368;84;25824;-69
2021/09/14 03:53:08;;;;;;;12.53;8.75;;;;;;;14.68;79.77;100541.21;1682662;84;27155;-69
2021/09/14 03:55:35;;;;;;;12.50;9.25;;;;;;;14.66;79.79;100542.90;1676997;84;25698;-69
2021/09/14 03:58:02;;;;;;;14.98;9.48;;;;;;;14.66;79.82;100540.72;1681108;84;25652;-69
2021/09/14 04:00:29;;;;;;;15.05;8.90;;;;;;;14.65;79.77;100539.14;1682523;83;27063;-70
2021/09/14 04:03:07;;;;;;;11.75;8.90;;;;;;;14.66;79.75;100551.06;1691793;83;25838;-70
2021/09/14 04:05:59;;;;;;;12.33;9.25;;;;;;;14.67;79.80;100552.64;1685831;84;27320;-69
2021/09/14 04:08:50;;;;;;;12.10;9.93;;;;;;;14.64;79.72;100556.05;1677528;84;25679;-69
2021/09/14 04:10:44;;;;;;;16.40;11.15;;;;;;;14.63;79.72;100554.44;1694874;84;25907;-70
2021/09/14 04:13:11;;;;;;;10.75;8.93;;;;;;;14.62;79.78;100554.77;1678298;84;25732;-68
2021/09/14 04:15:38;;;;;;;15.20;9.73;;;;;;;14.60;79.82;100551.02;1690495;84;25677;-70
2021/09/14 04:18:05;;;;;;;11.35;9.45;;;;;;;14.59;79.92;100556.78;1689581;84;27331;-70
2021/09/14 04:20:33;;;;;;;11.60;9.88;;;;;;;14.58;80.04;100557.33;1692970;83;25816;-69
2021/09/14 04:23:00;;;;;;;15.32;10.32;;;;;;;14.60;80.17;100562.47;1691161;84;25815;-68
2021/09/14 04:25:26;;;;;;;15.13;9.38;;;;;;;14.60;80.25;100559.75;1676397;84;25676;-69
2021/09/14 04:27:53;;;;;;;13.70;9.83;;;;;;;14.61;80.32;100564.05;1691170;84;25712;-69
2021/09/14 04:30:20;;;;;;;11.85;9.53;;;;;;;14.63;80.29;100567.27;1688556;83;27944;-69
2021/09/14 04:32:46;;;;;;;12.33;9.85;;;;;;;14.64;80.32;100563.39;1677990;83;26002;-70
2021/09/14 04:35:13;;;;;;;12.05;9.50;;;;;;;14.65;80.38;100575.32;1694470;83;25679;-69
2021/09/14 04:37:39;;;;;;;15.13;9.15;;;;;;;14.65;80.32;100576.69;1685812;83;25760;-69
2021/09/14 04:40:08;;;;;;;13.80;9.13;;;;;;;14.66;80.36;100574.75;1686035;83;25799;-69
2021/09/14 04:42:34;;;;;;;15.30;9.05;;;;;;;14.64;80.30;100572.92;1695843;84;27326;-69
2021/09/14 04:45:00;;;;;;;12.00;9.75;;;;;;;14.63;80.36;100577.58;1676696;84;25904;-69
2021/09/14 04:47:27;;;;;;;11.97;8.95;;;;;;;14.62;80.46;100572.46;1687328;83;25696;-70
2021/09/14 04:49:54;;;;;;;16.52;10.13;;;;;;;14.64;80.61;100572.92;1682431;84;25701;-70
2021/09/14 04:52:20;;;;;;;12.15;8.88;;;;;;;14.66;80.75;100573.39;1694168;83;26003;-70
2021/09/14 04:54:47;;;;;;;13.35;9.28;;;;;;;14.68;80.87;100577.39;1663871;84;27352;-70
2021/09/14 04:57:13;;;;;;;12.43;9.45;;;;;;;14.71;80.97;100579.46;1687394;84;25853;-70
2021/09/14 04:59:39;;;;;;;10.58;9.28;;;;;;;14.74;80.94;100577.98;1662141;85;25501;-69
2021/09/14 05:02:06;;;;;;;16.42;9.50;;;;;;;14.76;80.97;100579.81;1678939;84;25837;-69
2021/09/14 05:04:32;;;;;;;14.23;9.65;;;;;;;14.80;81.10;100585.42;1676135;84;26090;-70
2021/09/14 05:06:58;;;;;;;13.48;8.68;;;;;;;14.83;81.16;100587.46;1699059;83;27509;-70
2021/09/14 05:09:25;;;;;;;14.38;9.10;;;;;;;14.87;81.33;100582.39;1700101;83;25908;-70
2021/09/14 05:11:51;;;;;;;15.35;9.60;;;;;;;14.91;81.31;100586.61;1703704;83;25650;-70
2021/09/14 05:14:17;;;;;;;12.58;9.00;;;;;;;14.93;81.28;100587.89;1699779;83;26297;-71
2021/09/14 05:16:44;;;;;;;14.53;9.45;;;;;;;14.97;81.24;100588.59;1673765;84;25844;-70
2021/09/14 05:19:11;;;;;;;14.20;9.50;;;;;;;15.00;81.28;100589.27;1677027;84;27421;-70
2021/09/14 05:21:46;;;;;;;14.70;10.18;;;;;;;15.01;81.26;100592.23;1681458;83;25623;-70
2021/09/14 05:24:05;;;;;;;11.83;9.70;;;;;;;15.05;81.33;100594.52;1691556;83;25751;-70
2021/09/14 05:26:32;;;;;;;14.73;10.13;;;;;;;15.08;81.57;100597.38;1701829;83;26189;-70
2021/09/14 05:28:58;;;;;;;17.62;10.60;;;;;;;15.14;81.73;100600.72;1703649;83;25904;-70
2021/09/14 05:31:27;;;;;;;15.87;10.83;;;;;;;15.20;81.79;100598.58;1690352;83;25883;-70
2021/09/14 05:33:54;;;;;;;15.05;10.28;;;;;;;15.24;81.92;100599.53;1692941;83;25772;-70
2021/09/14 05:36:20;;;;;;;22.60;11.25;;;;;;;15.30;81.91;100603.05;1710833;83;25629;-70
2021/09/14 05:38:46;;;;;;;22.62;10.23;;;;;;;15.38;82.21;100595.16;1719171;83;26540;-70
2021/09/14 05:41:13;;;;;;;16.30;10.88;;;;;;;15.46;82.37;100595.63;1712156;83;25964;-70
2021/09/14 05:43:39;;;;;;;16.25;10.85;;;;;;;15.54;82.17;100596.70;1694805;83;27038;-69
2021/09/14 05:46:05;;;;;;;14.38;11.15;;;;;;;15.61;82.22;100596.40;1700343;83;25705;-69
2021/09/14 05:48:33;;;;;;;15.40;10.23;;;;;;;15.69;82.18;100590.61;1687151;83;25770;-69
2021/09/14 05:51:00;;;;;;;22.98;10.13;;;;;;;15.76;81.89;100595.55;1700308;83;25852;-70
2021/09/14 05:53:26;;;;;;;17.77;10.00;;;;;;;15.83;81.83;100601.25;1699361;82;25917;-70
2021/09/14 05:55:52;;;;;;;18.45;12.00;;;;;;;15.91;81.59;100594.91;1681532;83;27370;-70
2021/09/14 05:58:19;;;;;;;13.95;8.85;;;;;;;15.97;81.39;100599.57;1713104;83;25620;-70
2021/09/14 06:00:46;;;;;;;11.93;8.75;;;;;;;16.05;81.21;100595.38;1682059;83;26004;-70
2021/09/14 06:03:12;;;;;;;11.10;8.58;;;;;;;16.13;80.95;100599.73;1680400;83;25734;-70
2021/09/14 06:05:41;;;;;;;12.15;8.78;;;;;;;16.21;81.31;100594.17;1700373;83;25833;-70
2021/09/14 06:08:07;;;;;;;12.28;8.05;;;;;;;16.30;81.15;100594.64;1715075;83;27483;-70
2021/09/14 06:10:34;;;;;;;12.25;7.90;;;;;;;16.39;81.08;100594.73;1714207;83;25697;-70
2021/09/14 06:13:00;;;;;;;11.83;7.53;;;;;;;16.49;81.16;100598.16;1709794;83;25855;-70
2021/09/14 06:15:26;;;;;;;16.48;7.92;;;;;;;16.56;81.04;100600.53;1703066;83;25824;-70
2021/09/14 06:17:53;;;;;;;12.15;9.90;;;;;;;16.63;80.74;100594.50;1700824;83;25566;-70
2021/09/14 06:20:19;;;;;;;13.32;9.05;;;;;;;16.69;80.09;100597.24;1697033;83;27723;-70
2021/09/14 06:22:46;;;;;;;9.43;8.10;;;;;;;16.76;80.17;100602.13;1714997;83;25730;-70
2021/09/14 06:25:12;;;;;;;8.83;6.92;;;;;;;16.84;80.01;100599.03;1711826;83;25841;-70
2021/09/14 06:27:40;;;;;;;9.53;6.35;;;;;;;16.92;79.91;100595.41;1699373;83;26190;-70
2021/09/14 06:30:09;;;;;;;9.33;6.80;;;;;;;16.98;79.72;100602.24;1700372;83;26220;-70
2021/09/14 06:32:36;;;;;;;10.08;6.15;;;;;;;17.06;79.54;100611.44;1707489;83;27539;-70
2021/09/14 06:35:03;;;;;;;14.87;6.72;;;;;;;17.13;79.36;100611.67;1719903;83;25939;-70
2021/09/14 06:37:29;;;;;;;12.15;6.87;;;;;;;17.17;79.08;100607.09;1713334;83;25783;-69
2021/09/14 06:39:56;;;;;;;11.93;6.50;;;;;;;17.23;78.87;100619.94;1698045;83;25749;-69
2021/09/14 06:42:25;;;;;;;9.43;6.28;;;;;;;17.27;78.78;100616.17;1719923;82;25691;-69
2021/09/14 06:44:52;;;;;;;8.78;5.95;;;;;;;17.35;78.92;100614.45;1707752;82;26605;-69
2021/09/14 06:47:19;;;;;;;10.20;6.50;;;;;;;17.43;78.73;100618.95;1715901;83;25926;-69
2021/09/14 06:49:46;;;;;;;8.78;6.17;;;;;;;17.50;78.74;100626.02;1706678;83;25747;-69
2021/09/14 06:52:12;;;;;;;9.33;6.40;;;;;;;17.58;78.69;100623.48;1706921;83;27839;-69
2021/09/14 06:54:39;;;;;;;8.55;6.10;;;;;;;17.65;78.49;100621.72;1715614;83;26540;-68
2021/09/14 06:57:07;;;;;;;11.53;5.83;;;;;;;17.72;78.25;100623.86;1707781;82;27354;-69
2021/09/14 06:59:33;;;;;;;7.53;5.58;;;;;;;17.79;77.99;100624.05;1705809;83;25678;-69
2021/09/14 07:02:00;;;;;;;11.88;6.42;;;;;;;17.86;78.13;100624.29;1708934;83;25689;-68
2021/09/14 07:04:27;;;;;;;227.10;33.95;;;;;;;17.96;77.63;100624.33;1708372;83;27780;-68
2021/09/14 07:06:53;;;;;;;118.77;39.55;;;;;;;18.02;77.46;100624.30;1708559;83;25933;-69
2021/09/14 07:09:20;;;;;;;29.80;14.65;;;;;;;18.13;77.62;100625.94;1703924;83;27356;-69
2021/09/14 07:11:47;;;;;;;7.58;6.35;;;;;;;18.22;77.39;100625.80;1698154;82;25636;-69
2021/09/14 07:14:13;;;;;;;14.55;7.97;;;;;;;18.32;77.39;100623.89;1695930;82;25808;-69
2021/09/14 07:16:40;;;;;;;8.00;5.80;;;;;;;18.42;76.93;100628.84;1686968;83;26403;-69
2021/09/14 07:19:05;;;;;;;11.97;7.42;;;;;;;18.47;76.35;100621.72;1680616;83;25901;-69
2021/09/14 07:21:31;;;;;;;8.03;5.50;;;;;;;18.55;76.49;100624.05;1683667;84;25849;-69
2021/09/14 07:23:58;;;;;;;7.12;5.45;;;;;;;18.67;76.41;100618.45;1675510;84;25759;-69
2021/09/14 07:26:25;;;;;;;5.70;4.72;;;;;;;18.79;76.34;100618.92;1680444;84;25586;-69
2021/09/14 07:28:52;;;;;;;7.17;5.03;;;;;;;18.88;75.69;100624.23;1679392;84;25610;-69
2021/09/14 07:31:18;;;;;;;10.13;5.65;;;;;;;18.96;75.26;100634.20;1682379;83;25890;-69
2021/09/14 07:33:45;;;;;;;7.85;4.97;;;;;;;19.03;74.87;100632.20;1695267;83;28090;-69
2021/09/14 07:36:12;;;;;;;6.08;4.65;;;;;;;19.09;74.40;100627.25;1690342;83;25713;-69
2021/09/14 07:38:40;;;;;;;5.08;4.50;;;;;;;19.16;74.38;100623.29;1712291;83;25663;-69
2021/09/14 07:41:07;;;;;;;6.12;4.25;;;;;;;19.23;74.45;100626.95;1692927;83;25845;-69
2021/09/14 07:43:34;;;;;;;7.15;4.30;;;;;;;19.36;74.37;100628.22;1684844;82;25826;-69
2021/09/14 07:46:01;;;;;;;6.72;4.47;;;;;;;19.48;74.13;100632.17;1681398;83;27918;-69
2021/09/14 07:48:27;;;;;;;6.42;4.20;;;;;;;19.57;73.68;100635.48;1678087;83;26254;-69
2021/09/14 07:50:54;;;;;;;6.20;4.10;;;;;;;19.69;73.48;100633.75;1696032;83;26232;-69
2021/09/14 07:53:20;;;;;;;6.75;4.80;;;;;;;19.77;72.88;100632.18;1678558;83;26190;-69
2021/09/14 07:55:46;;;;;;;4.17;3.77;;;;;;;19.89;72.76;100625.73;1680108;83;25658;-69
2021/09/14 07:58:13;;;;;;;8.83;3.98;;;;;;;19.97;72.43;100628.02;1717853;82;27431;-69
2021/09/14 08:00:40;;;;;;;6.05;4.05;;;;;;;20.08;72.19;100627.64;1689908;82;25585;-69
2021/09/14 08:03:06;;;;;;;6.80;3.72;;;;;;;20.18;71.77;100623.50;1679166;83;25825;-69
2021/09/14 08:05:36;;;;;;;5.42;3.22;;;;;;;20.29;71.69;100634.06;1682229;83;25967;-69
2021/09/14 08:08:04;;;;;;;5.10;3.20;;;;;;;20.38;70.90;100629.72;1690039;83;25691;-69
2021/09/14 08:10:30;;;;;;;5.20;3.62;;;;;;;20.47;70.93;100634.96;1708426;83;27386;-69
2021/09/14 08:12:57;;;;;;;4.58;3.45;;;;;;;20.52;70.13;100632.69;1687988;83;25987;-69
2021/09/14 08:15:23;;;;;;;4.42;3.22;;;;;;;20.66;70.52;100637.64;1682644;83;25876;-69
2021/09/14 08:17:50;;;;;;;10.82;3.70;;;;;;;20.82;69.87;100632.56;1689619;83;25636;-69
2021/09/14 08:20:16;;;;;;;4.30;3.30;;;;;;;20.96;69.29;100633.34;1717796;83;25711;-69
2021/09/14 08:22:43;;;;;;;9.70;3.50;;;;;;;21.16;69.30;100634.80;1711533;83;27298;-69
2021/09/14 08:25:11;;;;;;;5.10;3.72;;;;;;;21.39;68.83;100631.17;1696827;82;25842;-69
2021/09/14 08:27:37;;;;;;;4.87;3.00;;;;;;;21.64;68.42;100626.00;1699176;82;26352;-69
2021/09/14 08:30:07;;;;;;;6.03;3.20;;;;;;;21.87;67.29;100632.72;1684687;83;25617;-69
2021/09/14 08:32:34;;;;;;;3.70;2.67;;;;;;;21.99;66.38;100639.32;1687658;83;25697;-69
2021/09/14 08:35:00;;;;;;;9.25;3.05;;;;;;;22.11;65.30;100638.84;1685290;83;27377;-70
2021/09/14 08:37:27;;;;;;;4.20;2.47;;;;;;;22.22;65.46;100637.00;1693425;82;25873;-69
2021/09/14 08:39:57;;;;;;;5.28;2.80;;;;;;;22.34;64.95;100638.11;1672239;84;25700;-69
2021/09/14 08:42:23;;;;;;;4.00;2.50;;;;;;;22.44;64.82;100633.05;1696511;83;26324;-68
2021/09/14 08:44:51;;;;;;;7.60;2.75;;;;;;;22.68;64.68;100635.78;1704028;83;25833;-68
2021/09/14 08:49:47;;;;;;;8.15;2.55;;;;;;;23.49;65.87;100634.66;1670966;84;25727;-69
2021/09/14 08:52:15;;;;;;;9.18;3.10;;;;;;;23.86;63.30;100637.75;1680069;84;26354;-68
2021/09/14 08:54:42;;;;;;;8.18;2.70;;;;;;;24.05;63.31;100643.50;1668672;84;25823;-68
2021/09/14 08:57:09;;;;;;;4.97;2.30;;;;;;;24.29;62.27;100644.52;1682665;84;25887;-68
2021/09/14 08:59:35;;;;;;;5.17;1.87;;;;;;;24.52;61.12;100647.68;1640037;85;27388;-68
2021/09/14 09:02:05;;;;;;;4.08;2.17;;;;;;;24.73;60.42;100650.25;1664504;85;25673;-68
2021/09/14 09:04:33;;;;;;;2.95;1.95;;;;;;;24.95;59.54;100648.23;1682013;83;25910;-69
2021/09/14 09:07:02;;;;;;;4.12;2.33;;;;;;;25.05;58.08;100648.02;1681780;84;25811;-68
2021/09/14 09:09:30;;;;;;;4.60;2.25;;;;;;;25.05;57.50;100656.32;1682529;84;25680;-68
2021/09/14 09:12:04;;;;;;;3.95;2.15;;;;;;;25.11;57.51;100653.33;1665882;85;27367;-68
2021/09/14 09:14:42;;;;;;;5.33;2.08;;;;;;;25.17;56.81;100653.12;1656989;85;25820;-74
2021/09/14 09:17:12;;;;;;;;;;;;;;;25.09;56.51;100659.25;1649288;85;25885;-69
2021/09/14 09:19:40;;;;;;;;;;;;;;;24.97;55.67;100659.69;1713058;83;26243;-70
2021/09/14 09:22:12;;;;;;;7.60;2.47;;;;;;;24.70;56.27;100680.86;1710381;83;25634;-69
2021/09/14 09:24:48;;;;;;;4.05;2.47;;;;;;;24.70;56.27;100680.86;1696565;83;27364;-70
2021/09/14 09:27:17;;;;;;;3.70;2.45;;;;;;;24.39;56.14;100661.70;1701257;83;25720;-69
2021/09/14 09:29:44;;;;;;;3.75;2.33;;;;;;;24.18;55.97;100656.96;1691387;83;25486;-69
2021/09/14 09:32:17;;;;;;;7.10;2.70;;;;;;;23.95;56.14;100664.99;1707600;83;25858;-69
2021/09/14 09:34:44;;;;;;;3.98;2.67;;;;;;;23.75;56.27;100656.26;1711185;82;25873;-69
2021/09/14 09:37:10;;;;;;;4.33;2.80;;;;;;;23.63;56.66;100657.98;1693732;83;27303;-69
2021/09/14 09:39:47;;;;;;;3.70;2.67;;;;;;;23.55;56.91;100658.55;1698872;83;25814;-69
2021/09/14 09:42:16;;;;;;;4.87;2.80;;;;;;;23.53;57.64;100655.40;1697868;83;26316;-69
2021/09/14 09:44:56;;;;;;;5.20;2.20;;;;;;;23.74;56.80;100656.05;1691147;83;25856;-69
2021/09/14 09:47:24;;;;;;;4.00;2.00;;;;;;;23.74;56.80;100656.05;1687751;83;25703;-69
2021/09/14 09:49:52;;;;;;;2.58;1.80;;;;;;;23.71;56.53;100652.67;1693619;83;27356;-69
2021/09/14 09:52:20;;;;;;;4.05;2.25;;;;;;;23.65;56.08;100653.66;1681983;83;25907;-69
2021/09/14 09:54:46;;;;;;;2.65;1.67;;;;;;;23.58;56.43;100652.27;1689063;83;25600;-69
2021/09/14 09:57:13;;;;;;;2.37;1.70;;;;;;;23.42;55.92;100648.44;1682269;83;25729;-69
2021/09/14 09:59:40;;;;;;;3.17;2.40;;;;;;;23.30;55.70;100651.55;1717648;83;25749;-69
2021/09/14 10:02:18;;;;;;;3.90;2.10;;;;;;;23.29;55.98;100656.28;1683858;83;27505;-69
2021/09/14 10:04:56;;;;;;;3.42;1.85;;;;;;;23.39;56.86;100649.81;1685713;83;26334;-69
2021/09/14 10:07:29;;;;;;;6.07;1.90;;;;;;;23.89;57.43;100651.39;1682310;83;25697;-69
2021/09/14 10:09:59;;;;;;;4.47;1.90;;;;;;;24.72;56.90;100648.66;1704970;83;25758;-69
2021/09/14 10:12:29;;;;;;;5.08;2.12;;;;;;;24.79;55.42;100650.84;1687767;83;26207;-69
2021/09/14 10:15:10;;;;;;;5.20;1.80;;;;;;;25.05;55.55;100648.02;1693537;83;27514;-69
2021/09/14 10:17:54;;;;;;;3.60;1.50;;;;;;;25.76;55.20;100647.53;1667267;83;26412;-69
2021/09/14 10:20:25;;;;;;;4.20;1.65;;;;;;;25.97;52.96;100652.98;1718099;83;25840;-69
2021/09/14 10:23:06;;;;;;;4.60;1.45;;;;;;;25.87;51.62;100649.05;1705302;83;25703;-68
2021/09/14 10:25:35;;;;;;;2.58;1.30;;;;;;;25.73;51.24;100649.14;1702282;83;25663;-69
2021/09/14 10:28:10;;;;;;;3.87;1.30;;;;;;;25.53;50.25;100647.46;1690355;83;30469;-69
2021/09/14 10:30:38;;;;;;;2.37;1.47;;;;;;;25.33;50.10;100647.92;1645314;86;25784;-69
2021/09/14 10:33:06;;;;;;;2.65;1.37;;;;;;;25.12;50.36;100645.23;1652006;85;25627;-69
2021/09/14 10:35:38;;;;;;;3.20;1.35;;;;;;;24.92;50.25;100642.89;1650673;85;25767;-69
2021/09/14 10:38:07;;;;;;;2.77;1.40;;;;;;;24.68;50.41;100643.74;1667545;85;26030;-69
2021/09/14 10:40:46;;;;;;;1.70;1.32;;;;;;;24.49;51.05;100644.92;1692231;83;27252;-69
2021/09/14 10:43:26;;;;;;;2.58;1.12;;;;;;;24.36;51.18;100647.28;1691860;83;25791;-70
2021/09/14 10:45:58;;;;;;;1.52;1.00;;;;;;;24.25;50.84;100648.67;1716436;83;25944;-68
2021/09/14 10:48:32;;;;;;;2.55;1.40;;;;;;;24.12;50.77;100647.47;1698351;83;25725;-69
2021/09/14 10:51:16;;;;;;;4.15;1.27;;;;;;;24.02;51.04;100644.31;1682688;83;25823;-69
2021/09/14 10:53:58;;;;;;;2.70;1.32;;;;;;;23.92;50.90;100647.81;1687608;83;27380;-66
2021/09/14 10:56:28;;;;;;;1.60;1.20;;;;;;;23.79;51.07;100644.62;1692192;83;25561;-68
2021/09/14 10:58:55;;;;;;;1.10;1.00;;;;;;;23.67;50.91;100644.39;1692730;83;25898;-68
2021/09/14 11:01:25;;;;;;;2.77;1.52;;;;;;;23.62;51.39;100643.98;1695408;83;25777;-67
2021/09/14 11:04:02;;;;;;;4.62;1.52;;;;;;;23.52;51.52;100639.22;1686002;83;25686;-67
2021/09/14 11:06:30;;;;;;;2.95;1.95;;;;;;;23.44;51.64;100646.08;1692293;83;27424;-68
2021/09/14 11:09:00;;;;;;;2.98;1.57;;;;;;;23.36;51.87;100641.73;1693219;83;25693;-67
2021/09/14 11:11:28;;;;;;;2.17;1.42;;;;;;;23.26;52.12;100639.12;1696124;83;25819;-67
2021/09/14 11:13:56;;;;;;;4.62;1.72;;;;;;;23.19;52.42;100651.50;1687472;83;25854;-68
2021/09/14 11:16:24;;;;;;;2.62;1.72;;;;;;;23.13;52.76;100648.90;1704374;83;25618;-66
2021/09/14 11:18:53;;;;;;;1.60;1.50;;;;;;;23.10;52.79;100642.77;1685017;83;27953;-67
2021/09/14 11:21:21;;;;;;;2.15;1.50;;;;;;;23.08;53.16;100637.64;1713198;83;25799;-67
2021/09/14 11:23:50;;;;;;;2.17;1.65;;;;;;;23.13;53.37;100636.48;1692254;83;25586;-68
2021/09/14 11:26:19;;;;;;;2.37;1.57;;;;;;;23.12;53.33;100632.94;1687583;83;25736;-68
2021/09/14 11:28:59;;;;;;;3.90;2.17;;;;;;;23.15;53.59;100635.50;1692433;83;25925;-68
2021/09/14 11:31:32;;;;;;;3.30;1.70;;;;;;;23.13;53.26;100635.11;1685390;83;27317;-67
2021/09/14 11:34:03;;;;;;;4.10;2.15;;;;;;;23.10;53.59;100640.02;1713246;83;25819;-67
2021/09/14 11:36:29;;;;;;;3.10;1.67;;;;;;;23.11;53.84;100626.44;1688090;83;25729;-66
2021/09/14 11:39:03;;;;;;;3.52;2.00;;;;;;;23.19;54.02;100614.83;1681342;83;26300;-66
2021/09/14 11:41:38;;;;;;;4.15;1.80;;;;;;;23.21;53.14;100615.25;1702268;83;25795;-67
2021/09/14 11:44:07;;;;;;;6.75;2.00;;;;;;;23.08;52.30;100622.46;1702743;83;28169;-66
2021/09/14 11:46:35;;;;;;;3.47;1.90;;;;;;;22.97;52.82;100625.74;1687605;83;25895;-65
2021/09/14 11:49:05;;;;;;;3.75;1.92;;;;;;;22.94;53.02;100624.53;1700964;83;25727;-66
2021/09/14 11:51:40;;;;;;;2.72;2.20;;;;;;;22.87;52.88;100625.88;1697568;83;25636;-66
2021/09/14 11:54:13;;;;;;;4.72;2.02;;;;;;;22.88;52.88;100622.52;1683298;83;25735;-66
2021/09/14 11:56:41;;;;;;;2.92;1.95;;;;;;;22.85;52.87;100618.58;1694957;83;27347;-65
2021/09/14 11:59:18;;;;;;;3.52;1.90;;;;;;;22.85;52.83;100626.86;1706317;82;26172;-66
2021/09/14 12:01:45;;;;;;;5.83;2.10;;;;;;;22.80;53.30;100620.33;1618567;86;25805;-65
2021/09/14 12:04:18;;;;;;;5.45;2.47;;;;;;;22.83;53.58;100620.13;1637430;85;27347;-65
2021/09/14 12:06:54;;;;;;;3.70;1.92;;;;;;;22.82;53.37;100620.72;1636474;85;25853;-64
2021/09/14 12:09:22;;;;;;;4.55;1.98;;;;;;;22.82;53.49;100617.19;1642663;85;27350;-65
2021/09/14 12:12:05;;;;;;;7.33;2.52;;;;;;;22.83;53.30;100620.13;1658545;85;31158;-65